createdAt,value
2022-08-07T00:00:15.444Z,23.91
2022-08-07T00:02:45.745Z,24.24
2022-08-07T00:05:12.916Z,24.39
2022-08-07T00:07:40.779Z,24.70
2022-08-07T00:10:26.661Z,24.70
2022-08-07T00:13:00.101Z,24.37
2022-08-07T00:15:38.277Z,23.78
2022-08-07T00:18:23.144Z,23.91
2022-08-07T00:20:54.981Z,24.16
2022-08-07T00:23:24.171Z,24.30
2022-08-07T00:25:58.929Z,24.21
2022-08-07T00:28:33.234Z,24.22
2022-08-07T00:31:12.487Z,24.32
2022-08-07T00:33:41.069Z,24.17
2022-08-07T00:36:09.450Z,24.22
2022-08-07T00:38:38.969Z,24.08
2022-08-07T00:41:14.399Z,23.94
2022-08-07T00:44:00.978Z,23.54
2022-08-07T00:46:31.033Z,23.32
2022-08-07T00:49:02.829Z,23.29
2022-08-07T00:51:57.403Z,23.08
2022-08-07T00:54:35.421Z,22.77
2022-08-07T00:57:13.833Z,22.55
2022-08-07T00:59:41.757Z,22.66
2022-08-07T01:02:27.868Z,22.40
2022-08-07T01:04:58.278Z,22.20
2022-08-07T01:07:29.648Z,21.97
2022-08-07T01:10:05.692Z,22.06
2022-08-07T01:12:53.060Z,22.17
2022-08-07T01:15:22.407Z,22.29
2022-08-07T01:18:03.720Z,22.30
2022-08-07T01:20:43.296Z,22.56
2022-08-07T01:23:13.006Z,22.63
2022-08-07T01:25:55.786Z,22.65
2022-08-07T01:28:24.816Z,22.84
2022-08-07T01:30:55.627Z,22.80
2022-08-07T01:33:25.228Z,22.67
2022-08-07T01:36:13.335Z,22.75
2022-08-07T01:38:45.120Z,22.91
2022-08-07T01:41:25.931Z,23.00
2022-08-07T01:43:55.510Z,23.09
2022-08-07T01:46:22.733Z,23.12
2022-08-07T01:48:50.770Z,22.68
2022-08-07T01:52:03.474Z,22.67
2022-08-07T01:54:32.892Z,23.02
2022-08-07T01:57:08.213Z,23.02
2022-08-07T01:59:51.954Z,22.63
2022-08-07T02:02:32.873Z,22.02
2022-08-07T02:05:47.725Z,22.20
2022-08-07T02:08:19.704Z,22.61
2022-08-07T02:10:58.047Z,22.74
2022-08-07T02:13:57.247Z,22.96
2022-08-07T02:16:33.222Z,22.67
2022-08-07T02:20:05.156Z,22.69
2022-08-07T02:21:59.738Z,22.94
2022-08-07T02:24:29.909Z,23.08
2022-08-07T02:27:01.451Z,22.88
2022-08-07T02:29:32.384Z,23.01
2022-08-07T02:32:04.534Z,23.00
2022-08-07T02:34:33.451Z,22.77
2022-08-07T02:37:08.226Z,22.91
2022-08-07T02:40:02.382Z,22.91
2022-08-07T02:42:33.993Z,22.96
2022-08-07T02:45:11.985Z,23.02
2022-08-07T02:47:51.870Z,23.11
2022-08-07T02:50:20.028Z,23.18
2022-08-07T02:53:03.387Z,23.26
2022-08-07T02:56:03.353Z,23.24
2022-08-07T02:58:27.496Z,22.96
2022-08-07T03:00:59.428Z,23.17
2022-08-07T03:03:29.629Z,23.13
2022-08-07T03:06:16.389Z,23.25
2022-08-07T03:08:53.258Z,23.57
2022-08-07T03:11:21.252Z,23.69
2022-08-07T03:13:57.319Z,23.79
2022-08-07T03:16:27.808Z,23.86
2022-08-07T03:18:57.140Z,23.98
2022-08-07T03:21:32.807Z,24.15
2022-08-07T03:24:18.159Z,24.16
2022-08-07T03:26:59.231Z,24.12
2022-08-07T03:29:46.183Z,24.30
2022-08-07T03:32:32.727Z,24.38
2022-08-07T03:35:26.276Z,24.34
2022-08-07T03:37:58.002Z,24.30
2022-08-07T03:40:31.027Z,24.15
2022-08-07T03:43:10.075Z,24.45
2022-08-07T03:45:47.708Z,24.63
2022-08-07T03:48:21.220Z,24.78
2022-08-07T03:51:23.291Z,25.18
2022-08-07T03:54:36.120Z,25.10
2022-08-07T03:57:03.469Z,25.26
2022-08-07T04:00:08.762Z,25.12
2022-08-07T04:02:47.334Z,24.77
2022-08-07T04:05:40.800Z,24.78
2022-08-07T04:08:28.632Z,24.91
2022-08-07T04:12:23.693Z,25.04
2022-08-07T04:14:32.896Z,25.17
2022-08-07T04:17:03.169Z,25.37
2022-08-07T04:19:34.151Z,25.49
2022-08-07T04:22:22.929Z,25.61
2022-08-07T04:25:02.257Z,25.92
2022-08-07T04:27:44.335Z,26.44
2022-08-07T04:30:35.345Z,26.82
2022-08-07T04:33:19.342Z,26.82
2022-08-07T04:35:50.463Z,26.76
2022-08-07T04:38:22.436Z,26.52
2022-08-07T04:40:51.913Z,26.41
2022-08-07T04:44:10.045Z,26.26
2022-08-07T04:47:09.028Z,26.63
2022-08-07T04:50:04.400Z,26.97
2022-08-07T04:52:46.730Z,26.86
2022-08-07T04:58:16.448Z,27.04
2022-08-07T04:58:42.329Z,27.10
2022-08-07T05:01:18.246Z,27.27
2022-08-07T05:04:19.363Z,27.47
2022-08-07T05:07:19.803Z,27.36
2022-08-07T05:09:54.041Z,27.58
2022-08-07T05:13:01.463Z,27.80
2022-08-07T05:15:53.681Z,28.02
2022-08-07T05:19:13.443Z,27.92
2022-08-07T05:21:58.954Z,27.99
2022-08-07T05:24:39.717Z,28.27
2022-08-07T05:28:03.088Z,28.28
2022-08-07T05:30:04.471Z,28.10
2022-08-07T05:32:33.047Z,27.44
2022-08-07T05:35:03.016Z,26.94
2022-08-07T05:37:31.728Z,26.60
2022-08-07T05:40:19.153Z,26.52
2022-08-07T05:45:48.549Z,26.26
2022-08-07T05:48:26.352Z,26.13
2022-08-07T05:51:01.810Z,25.98
2022-08-07T05:54:14.151Z,25.92
2022-08-07T05:56:30.266Z,26.09
2022-08-07T05:59:08.849Z,26.11
2022-08-07T06:01:41.067Z,26.11
2022-08-07T06:04:10.697Z,25.85
2022-08-07T06:06:46.394Z,26.13
2022-08-07T06:10:04.118Z,25.98
2022-08-07T06:12:31.625Z,26.02
2022-08-07T06:15:05.717Z,25.97
2022-08-07T06:17:38.507Z,26.04
2022-08-07T06:20:31.655Z,26.05
2022-08-07T06:23:46.606Z,26.07
2022-08-07T06:25:59.555Z,26.07
2022-08-07T06:28:28.726Z,26.25
2022-08-07T06:30:58.549Z,26.26
2022-08-07T06:33:29.687Z,26.37
2022-08-07T06:36:11.973Z,26.44
2022-08-07T06:38:59.117Z,26.49
2022-08-07T06:42:00.417Z,26.57
2022-08-07T06:45:11.442Z,26.90
2022-08-07T06:47:57.626Z,26.89
2022-08-07T06:50:36.234Z,27.08
2022-08-07T06:53:18.659Z,26.81
2022-08-07T06:56:01.962Z,27.15
2022-08-07T06:58:35.591Z,27.22
2022-08-07T07:01:11.261Z,27.17
2022-08-07T07:03:50.221Z,27.19
2022-08-07T07:06:27.927Z,27.19
2022-08-07T07:08:57.001Z,27.11
2022-08-07T07:12:08.178Z,27.11
2022-08-07T07:14:18.385Z,27.02
2022-08-07T07:16:53.428Z,27.10
2022-08-07T07:19:56.309Z,27.13
2022-08-07T07:22:51.002Z,27.13
2022-08-07T07:26:35.524Z,27.03
2022-08-07T07:28:42.050Z,27.07
2022-08-07T07:31:50.046Z,26.99
2022-08-07T07:34:30.579Z,27.29
2022-08-07T07:37:05.577Z,27.44
2022-08-07T07:39:54.793Z,27.66
2022-08-07T07:42:32.726Z,27.69
2022-08-07T07:45:05.735Z,27.70
2022-08-07T07:47:52.560Z,27.45
2022-08-07T07:50:33.578Z,27.51
2022-08-07T07:53:23.328Z,27.40
2022-08-07T07:56:01.022Z,27.67
2022-08-07T07:58:41.550Z,27.83
2022-08-07T08:02:02.576Z,28.25
2022-08-07T08:04:11.274Z,28.73
2022-08-07T08:06:51.914Z,28.94
2022-08-07T08:09:23.254Z,28.52
2022-08-07T08:12:02.930Z,28.27
2022-08-07T08:14:37.038Z,28.06
2022-08-07T08:17:56.389Z,27.91
2022-08-07T08:20:22.923Z,28.03
2022-08-07T08:23:14.446Z,28.00
2022-08-07T08:26:07.064Z,27.98
2022-08-07T08:28:45.177Z,28.02
2022-08-07T08:31:59.221Z,28.38
2022-08-07T08:34:26.690Z,28.60
2022-08-07T08:36:58.081Z,28.68
2022-08-07T08:39:39.571Z,28.81
2022-08-07T08:42:28.763Z,29.00
2022-08-07T08:45:14.196Z,29.05
2022-08-07T08:48:10.920Z,28.90
2022-08-07T08:50:43.395Z,28.56
2022-08-07T08:53:20.590Z,28.60
2022-08-07T08:55:58.564Z,28.89
2022-08-07T08:58:38.937Z,29.00
2022-08-07T09:01:18.610Z,28.88
2022-08-07T09:04:09.200Z,28.79
2022-08-07T09:07:06.460Z,28.77
2022-08-07T09:09:57.049Z,28.84
2022-08-07T09:12:39.164Z,29.03
2022-08-07T09:16:23.250Z,29.00
2022-08-07T09:18:47.346Z,29.09
2022-08-07T09:22:10.339Z,29.19
2022-08-07T09:25:14.567Z,29.37
2022-08-07T09:29:24.467Z,29.78
2022-08-07T09:31:27.702Z,29.79
2022-08-07T09:34:15.028Z,29.78
2022-08-07T09:37:00.024Z,29.81
2022-08-07T09:40:12.342Z,29.81
2022-08-07T09:43:00.497Z,29.80
2022-08-07T09:47:27.797Z,29.53
2022-08-07T09:50:01.285Z,29.62
2022-08-07T09:52:34.918Z,29.70
2022-08-07T09:55:29.371Z,29.74
2022-08-07T09:58:26.219Z,29.31
2022-08-07T10:01:53.164Z,29.36
2022-08-07T10:04:32.640Z,29.35
2022-08-07T10:07:52.287Z,29.58
2022-08-07T10:11:07.565Z,29.58
2022-08-07T10:14:00.646Z,29.79
2022-08-07T10:29:35.140Z,29.38
2022-08-07T10:32:53.854Z,29.47
2022-08-07T10:35:55.615Z,29.54
2022-08-07T10:38:48.770Z,29.45
2022-08-07T10:41:54.609Z,29.45
2022-08-07T10:44:40.720Z,29.57
2022-08-07T10:47:54.482Z,29.18
2022-08-07T10:50:29.758Z,28.96
2022-08-07T10:53:41.697Z,28.77
2022-08-07T10:56:36.413Z,28.18
2022-08-07T10:59:22.107Z,28.18
2022-08-07T11:02:33.545Z,28.18
2022-08-07T11:05:49.257Z,28.30
2022-08-07T11:08:43.744Z,28.40
2022-08-07T11:11:20.330Z,28.42
2022-08-07T11:14:45.030Z,28.25
2022-08-07T11:17:01.284Z,28.34
2022-08-07T11:19:52.128Z,28.46
2022-08-07T11:22:43.941Z,28.89
2022-08-07T11:25:36.099Z,29.22
2022-08-07T11:28:19.406Z,29.13
2022-08-07T11:30:52.504Z,29.08
2022-08-07T11:33:53.795Z,28.92
2022-08-07T11:36:31.199Z,29.13
2022-08-07T11:38:58.401Z,28.92
2022-08-07T11:42:02.380Z,28.63
2022-08-07T11:44:28.672Z,28.71
2022-08-07T11:47:26.124Z,28.97
2022-08-07T11:50:30.454Z,29.04
2022-08-07T11:53:17.707Z,29.22
2022-08-07T11:56:26.048Z,29.32
2022-08-07T11:59:00.303Z,29.40
2022-08-07T12:01:59.777Z,29.22
2022-08-07T12:04:35.256Z,29.44
2022-08-07T12:07:27.332Z,29.10
2022-08-07T12:10:19.978Z,29.11
2022-08-07T12:13:17.177Z,28.97
2022-08-07T12:16:06.810Z,29.03
2022-08-07T12:18:37.188Z,29.10
2022-08-07T12:21:33.566Z,29.41
2022-08-07T12:24:37.377Z,29.27
2022-08-07T12:27:27.842Z,29.31
2022-08-07T12:30:13.407Z,29.37
2022-08-07T12:32:43.916Z,29.11
2022-08-07T12:35:13.702Z,29.19
2022-08-07T12:38:10.233Z,29.29
2022-08-07T12:40:50.320Z,29.32
2022-08-07T12:44:01.332Z,29.33
2022-08-07T12:46:12.306Z,29.41
2022-08-07T12:49:10.136Z,28.96
2022-08-07T12:52:14.253Z,28.08
2022-08-07T12:55:09.491Z,27.84
2022-08-07T12:58:01.445Z,27.69
2022-08-07T13:00:49.597Z,27.73
2022-08-07T13:03:26.985Z,27.75
2022-08-07T13:06:31.820Z,27.66
2022-08-07T13:09:12.634Z,27.53
2022-08-07T13:12:22.100Z,27.90
2022-08-07T13:15:23.512Z,28.14
2022-08-07T13:18:09.265Z,28.19
2022-08-07T13:20:51.838Z,28.45
2022-08-07T13:24:02.011Z,28.34
2022-08-07T13:26:46.095Z,28.27
2022-08-07T13:29:42.524Z,28.27
2022-08-07T13:32:37.441Z,28.42
2022-08-07T13:35:15.795Z,28.62
2022-08-07T13:37:58.952Z,28.76
2022-08-07T13:40:54.415Z,28.65
2022-08-07T13:43:22.807Z,28.61
2022-08-07T13:46:12.414Z,28.87
2022-08-07T13:48:58.719Z,29.12
2022-08-07T13:52:22.726Z,29.41
2022-08-07T13:54:23.512Z,29.63
2022-08-07T13:56:59.910Z,29.80
2022-08-07T13:59:33.109Z,29.87
2022-08-07T14:02:13.623Z,29.89
2022-08-07T14:04:54.723Z,29.98
2022-08-07T14:07:29.286Z,30.00
2022-08-07T14:10:21.931Z,30.12
2022-08-07T14:13:03.781Z,29.86
2022-08-07T14:15:37.170Z,29.81
2022-08-07T14:18:29.130Z,29.82
2022-08-07T14:22:03.134Z,30.01
2022-08-07T14:24:20.905Z,30.09
2022-08-07T14:26:54.687Z,29.86
2022-08-07T14:30:09.587Z,29.40
2022-08-07T14:32:21.558Z,28.67
2022-08-07T14:34:54.229Z,28.49
2022-08-07T14:37:36.056Z,27.99
2022-08-07T14:40:18.233Z,27.56
2022-08-07T14:43:58.220Z,26.72
2022-08-07T14:46:00.730Z,26.63
2022-08-07T14:48:33.315Z,26.64
2022-08-07T14:51:05.302Z,26.65
2022-08-07T14:54:06.623Z,26.97
2022-08-07T15:00:05.752Z,27.19
2022-08-07T15:02:32.090Z,27.39
2022-08-07T15:07:52.063Z,27.36
2022-08-07T15:13:25.435Z,26.97
2022-08-07T15:16:10.847Z,26.80
2022-08-07T15:18:45.430Z,26.68
2022-08-07T15:25:13.286Z,26.55
2022-08-07T15:27:19.390Z,26.45
2022-08-07T15:30:06.691Z,26.10
2022-08-07T15:33:01.202Z,26.24
2022-08-07T15:36:00.346Z,25.39
2022-08-07T15:38:32.963Z,24.31
2022-08-07T15:42:42.149Z,23.45
2022-08-07T15:44:09.298Z,22.91
2022-08-07T15:46:51.908Z,22.80
2022-08-07T15:49:25.582Z,22.97
2022-08-07T15:52:13.867Z,23.09
2022-08-07T15:54:44.428Z,23.20
2022-08-07T15:57:40.338Z,23.19
2022-08-07T16:00:31.881Z,23.24
2022-08-07T16:03:03.917Z,23.02
2022-08-07T16:05:31.885Z,23.08
2022-08-07T16:08:30.817Z,23.00
2022-08-07T16:11:27.112Z,23.04
2022-08-07T16:14:20.451Z,23.07
2022-08-07T16:17:16.124Z,23.24
2022-08-07T16:19:58.941Z,23.47
2022-08-07T16:22:33.434Z,23.64
2022-08-07T16:25:52.728Z,23.61
2022-08-07T16:30:08.294Z,23.97
2022-08-07T16:32:02.360Z,24.06
2022-08-07T16:34:40.277Z,24.30
2022-08-07T16:38:03.933Z,24.45
2022-08-07T16:40:30.827Z,24.70
2022-08-07T16:44:03.701Z,24.69
2022-08-07T16:47:05.921Z,24.79
2022-08-07T16:50:28.615Z,24.95
2022-08-07T16:54:01.381Z,24.94
2022-08-07T16:56:33.151Z,24.54
2022-08-07T16:59:17.885Z,24.13
2022-08-07T17:02:11.206Z,24.53
2022-08-07T17:04:57.884Z,24.65
2022-08-07T17:07:51.713Z,24.68
2022-08-07T17:10:33.380Z,24.79
2022-08-07T17:13:15.935Z,24.76
2022-08-07T17:16:00.880Z,24.91
2022-08-07T17:18:37.835Z,24.92
2022-08-07T17:21:19.024Z,24.85
2022-08-07T17:24:02.189Z,24.83
2022-08-07T17:26:54.726Z,24.78
2022-08-07T17:34:08.953Z,24.59
2022-08-07T17:36:21.081Z,24.64
2022-08-07T17:39:58.813Z,24.75
2022-08-07T17:42:59.662Z,24.71
2022-08-07T17:45:36.753Z,24.66
2022-08-07T17:49:22.977Z,24.62
2022-08-07T17:52:05.880Z,24.70
2022-08-07T17:55:04.405Z,24.65
2022-08-07T17:57:56.513Z,24.55
2022-08-07T18:00:34.743Z,24.40
2022-08-07T18:04:04.201Z,24.38
2022-08-07T18:06:37.237Z,24.46
2022-08-07T18:09:08.487Z,24.40
2022-08-07T18:12:18.117Z,24.44
2022-08-07T18:14:55.149Z,24.33
2022-08-07T18:18:46.316Z,24.43
2022-08-07T18:21:12.714Z,24.40
2022-08-07T18:23:43.721Z,24.32
2022-08-07T18:26:16.296Z,24.31
2022-08-07T18:30:06.173Z,24.36
2022-08-07T18:32:32.820Z,24.47
2022-08-07T18:35:20.604Z,24.62
2022-08-07T18:38:58.330Z,24.67
2022-08-07T18:41:16.676Z,24.68
2022-08-07T18:44:09.351Z,24.73
2022-08-07T18:47:06.017Z,24.63
2022-08-07T18:50:30.131Z,24.66
2022-08-07T18:52:55.108Z,24.63
2022-08-07T18:55:55.777Z,24.55
2022-08-07T18:58:38.338Z,24.61
2022-08-07T19:02:17.614Z,24.71
2022-08-07T19:04:37.427Z,24.71
2022-08-07T19:07:34.561Z,24.70
2022-08-07T19:10:18.528Z,24.70
2022-08-07T19:12:58.186Z,24.73
2022-08-07T19:17:01.346Z,24.81
2022-08-07T19:19:37.870Z,24.78
2022-08-07T19:22:18.840Z,24.76
2022-08-07T19:25:06.736Z,24.76
2022-08-07T19:28:57.031Z,24.71
2022-08-07T19:30:59.992Z,24.66
2022-08-07T19:33:34.941Z,24.50
2022-08-07T19:36:04.565Z,24.52
2022-08-07T19:38:52.668Z,24.43
2022-08-07T19:42:05.484Z,24.50
2022-08-07T19:44:38.154Z,24.60
2022-08-07T19:47:11.632Z,24.48
2022-08-07T19:49:56.491Z,24.46
2022-08-07T19:52:29.038Z,24.25
2022-08-07T19:54:58.299Z,23.90
2022-08-07T19:58:01.918Z,24.00
2022-08-07T20:00:29.339Z,23.97
2022-08-07T20:03:03.508Z,24.06
2022-08-07T20:06:00.609Z,24.03
2022-08-07T20:08:24.599Z,24.11
2022-08-07T20:11:09.705Z,24.19
2022-08-07T20:13:46.330Z,24.21
2022-08-07T20:16:34.922Z,24.23
2022-08-07T20:19:10.203Z,24.22
2022-08-07T20:21:47.799Z,24.16
2022-08-07T20:24:22.772Z,23.71
2022-08-07T20:26:54.864Z,23.63
2022-08-07T20:29:49.072Z,23.69
2022-08-07T20:32:25.681Z,23.51
2022-08-07T20:34:57.783Z,23.68
2022-08-07T20:37:37.181Z,23.31
2022-08-07T20:40:32.102Z,23.17
2022-08-07T20:43:09.548Z,23.22
2022-08-07T20:46:30.172Z,23.18
2022-08-07T20:48:34.741Z,23.35
2022-08-07T20:51:04.283Z,23.34
2022-08-07T20:54:04.248Z,23.33
2022-08-07T20:56:32.307Z,23.56
2022-08-07T20:59:05.091Z,23.58
2022-08-07T21:01:45.419Z,23.65
2022-08-07T21:04:28.031Z,23.65
2022-08-07T21:07:14.796Z,23.58
2022-08-07T21:10:00.388Z,23.54
2022-08-07T21:12:33.524Z,23.62
2022-08-07T21:15:05.498Z,23.47
2022-08-07T21:18:20.582Z,23.50
2022-08-07T21:20:30.481Z,23.31
2022-08-07T21:23:15.429Z,23.36
2022-08-07T21:25:59.064Z,23.38
2022-08-07T21:28:50.894Z,23.39
2022-08-07T21:32:43.063Z,23.44
2022-08-07T21:34:59.528Z,23.35
2022-08-07T21:37:59.571Z,23.35
2022-08-07T21:40:41.452Z,23.29
2022-08-07T21:43:10.675Z,23.27
2022-08-07T21:46:07.869Z,23.34
2022-08-07T21:49:03.151Z,23.15
2022-08-07T21:51:54.865Z,22.82
2022-08-07T21:54:34.756Z,22.71
2022-08-07T21:57:39.738Z,22.86
2022-08-07T22:00:09.154Z,22.59
2022-08-07T22:03:11.102Z,22.27
2022-08-07T22:06:01.431Z,22.39
2022-08-07T22:08:46.059Z,22.45
2022-08-07T22:11:18.829Z,22.47
2022-08-07T22:13:55.355Z,22.42
2022-08-07T22:17:15.498Z,22.31
2022-08-07T22:20:07.047Z,22.44
2022-08-07T22:22:44.788Z,21.89
2022-08-07T22:25:42.381Z,21.74
2022-08-07T22:28:31.032Z,21.79
2022-08-07T22:31:10.156Z,21.85
2022-08-07T22:33:56.238Z,21.95
2022-08-07T22:37:02.216Z,22.23
2022-08-07T22:40:05.204Z,22.31
2022-08-07T22:42:35.166Z,22.20
2022-08-07T22:45:11.029Z,22.19
2022-08-07T22:48:13.541Z,22.09
2022-08-07T22:51:49.033Z,22.23
2022-08-07T22:54:22.509Z,22.28
2022-08-07T22:56:52.002Z,22.31
2022-08-07T22:59:33.242Z,22.28
2022-08-07T23:02:15.378Z,22.27
2022-08-07T23:04:57.841Z,22.25
2022-08-07T23:07:42.267Z,21.79
2022-08-07T23:10:42.994Z,21.59
2022-08-07T23:13:29.285Z,21.70
2022-08-07T23:16:07.068Z,21.80
2022-08-07T23:19:11.235Z,21.81
2022-08-07T23:22:12.988Z,21.67
2022-08-07T23:25:00.502Z,21.69
2022-08-07T23:28:20.366Z,21.38
2022-08-07T23:31:42.682Z,20.92
2022-08-07T23:34:38.112Z,21.04
2022-08-07T23:37:30.746Z,20.96
2022-08-07T23:40:03.286Z,21.07
2022-08-07T23:42:54.054Z,20.98
2022-08-07T23:45:33.563Z,21.08
2022-08-07T23:49:02.066Z,21.24
2022-08-07T23:53:05.140Z,21.33
2022-08-07T23:54:46.560Z,21.47
2022-08-07T23:57:28.119Z,21.38
